Baltimore, MD (21201)

4:43 AM EDT on July 31, 2016 (GMT -0400)
Bachstraße | | Change Station

Elev 0 ft 39.28 °N, 76.62 °W | Updated 7 minutes ago

Overcast
Overcast
73.8 °F
Feels Like 71 °F
N
3.7
Wind Variable Wind from WSW
Gusts 14.9 mph

Today
High -- | Low -- °F
--% Chance of Precip.
Yesterday
High -- | Low -- °F
Precip. -- in
Pressure 29.94 in
Visibility 9.0 miles
Clouds Few 600 ft
Overcast 1500 ft
Heat Index 71 °F
Dew Point 72 °F
Humidity 94%
Rainfall 0.00 in
Snow Depth Not available.
6:06 AM 8:19 PM
Waning Crescent, 8% visible
METAR KBWI 310754Z 36004KT 9SM FEW006 OVC015 23/22 A2994 RMK AO2 SLP137 T02280217 $
Pressure 29.94 in
Visibility 9.0 miles
Clouds Few 600 ft
Overcast 1500 ft
Heat Index 71 °F
Dew Point 72 °F
Humidity 94%
Rainfall 0.00 in
Snow Depth Not available.
6:06 AM 8:19 PM
Waning Crescent, 8% visible
METAR KBWI 310754Z 36004KT 9SM FEW006 OVC015 23/22 A2994 RMK AO2 SLP137 T02280217 $

10-Day Weather Forecast

Almanac

Astronomy

Jul. 31, 2016 Rise Set
Actual Time
Civil Twilight
Nautical Twilight
Astronomical Twilight
Moon
Length of Visible Light
Length of Day
Tomorrow will be .
, % of the Moon is Illuminated

Today's Extremes

State Highs State Lows

Community

WunderPhotos

Upload Photos

1,928,768 photos uploaded!

WunderBlog® & News

Nearby

Air Quality

  Air Quality AQ Index Pollutant
Not available.

Snow Depth

Station Depth Elevation

Earthquake Activity

City Distance Mag. Time & Date
Minimum magnitude displayed is 2.5.

Coastal Water Temperatures

Place Temperature

Stations

Nearby Weather Stations

Station Location Temp. Windchill Dew Point Humidity Wind Precip. Elev Updated Type
                   

Watches & Warnings

There are currently no watches in effect.